WetterOnline ( http://www.wetteronline.at )

Wetter aktuell Wien

Aktuelles Wetter: Wien / Hohe Warte (200m)

6-stündlich | Neueste Meldungen
Ortszeit Temperatur Wetter
Mi, 20.02. 7:00 5.8° C leicht bewölkt
Mi, 20.02. 1:00 9.6° C bewölkt
Di, 19.02. 19:00 10.7° C fast wolkenlos
Di, 19.02. 13:00 13.4° C fast wolkenlos
Di, 19.02. 7:00 -0.8° C wolkenlos
Di, 19.02. 1:00 1.2° C wolkenlos
Mo, 18.02. 19:00 6.7° C wolkenlos
Mo, 18.02. 13:00 8.5° C leicht bewölkt
Ortszeit Temperatur Wetter
Mi, 20.02. 12:00 10.4° C wolkig
Mi, 20.02. 11:00 9.0° C leicht bewölkt
Mi, 20.02. 10:00 9.0° C leicht bewölkt
Mi, 20.02. 9:00 7.6° C leicht bewölkt
Mi, 20.02. 8:00 6.5° C leicht bewölkt
Mi, 20.02. 7:00 5.8° C leicht bewölkt
Ortszeit Relative Feuchte Sichtweite
Mi, 20.02. 7:00 69% 30 km
Mi, 20.02. 1:00 56% 30 km
Di, 19.02. 19:00 49% 40 km
Di, 19.02. 13:00 39% 18 km
Di, 19.02. 7:00 95% 1.1 km
Di, 19.02. 1:00 87% 10 km
Mo, 18.02. 19:00 72% 14 km
Mo, 18.02. 13:00 65% 7 km
Ortszeit Relative Feuchte Sichtweite
Mi, 20.02. 12:00 52% 25 km
Mi, 20.02. 11:00 59% 20 km
Mi, 20.02. 10:00 61% 20 km
Mi, 20.02. 9:00 66% 20 km
Mi, 20.02. 8:00 68% 30 km
Mi, 20.02. 7:00 69% 30 km
Ortszeit Niederschlagsmenge Niederschlagsart
Mi, 20.02. 7:00 0.1 l/m2 in 12 Std. -
Mi, 20.02. 1:00 0.1 l/m2 in 6 Std. Regen
Di, 19.02. 19:00 0.0 l/m2 in 24 Std. -
Di, 19.02. 13:00 0.0 l/m2 in 24 Std. -
Di, 19.02. 7:00 0.0 l/m2 in 24 Std. -
Di, 19.02. 1:00 0.0 l/m2 in 24 Std. -
Mo, 18.02. 19:00 0.0 l/m2 in 24 Std. -
Mo, 18.02. 13:00 0.0 l/m2 in 24 Std. -
Ortszeit Niederschlagsmenge Niederschlagsart
Mi, 20.02. 12:00 keine Meldung -
Mi, 20.02. 11:00 keine Meldung -
Mi, 20.02. 10:00 keine Meldung -
Mi, 20.02. 9:00 keine Meldung -
Mi, 20.02. 8:00 keine Meldung -
Mi, 20.02. 7:00 keine Meldung -
Ortszeit Stärke Spitze Richtung
km/h Bft. km/h Grad Sektor
Mi, 20.02. 7:00 18 3 - 290° W
Mi, 20.02. 1:00 11 2 - 310° NW
Di, 19.02. 19:00 22 4 - 280° W
Di, 19.02. 13:00 25 4 50 270° W
Di, 19.02. 7:00 0 0 - - -
Di, 19.02. 1:00 4 1 - 70° O
Mo, 18.02. 19:00 7 2 - 70° O
Mo, 18.02. 13:00 4 1 - 80° O
Ortszeit Stärke Spitze Richtung
km/h Bft. km/h Grad Sektor
Mi, 20.02. 12:00 14 3 - 300° NW
Mi, 20.02. 11:00 18 3 - 280° W
Mi, 20.02. 10:00 18 3 - 290° W
Mi, 20.02. 9:00 14 3 - 290° W
Mi, 20.02. 8:00 14 3 - 300° NW
Mi, 20.02. 7:00 18 3 - 290° W
Ortszeit Untergrenze Bedeckung Gattung
total tief tief mittel hoch
Mi, 20.02. 7:00 9000 m 3/8 0/8 - - Ci
Mi, 20.02. 1:00 1500 m 7/8 7/8 Sc - -
Di, 19.02. 19:00 9000 m 1/8 0/8 - - Ci
Di, 19.02. 13:00 9000 m 1/8 0/8 - - Ci
Di, 19.02. 7:00 - 0/8 0/8 - - -
Di, 19.02. 1:00 - 0/8 0/8 - - -
Mo, 18.02. 19:00 - 0/8 0/8 - - -
Mo, 18.02. 13:00 10500 m 5/8 0/8 - - Ci
Ortszeit Bedeckungsgrad in Achtel und Wolkenuntergrenze
Mi, 20.02. 12:00 4(1080m)
Mi, 20.02. 11:00 1(1080m) 5(9000m)
Mi, 20.02. 10:00 5(9000m)
Mi, 20.02. 9:00 5(9000m)
Mi, 20.02. 8:00 5(9000m)
Mi, 20.02. 7:00 3(9000m)
Ortszeit Luftdruck NN (hPa) Tendenz (hPa in 3 Std.)
Mi, 20.02. 7:00 1023 + 0,8
Mi, 20.02. 1:00 1021 + 1,2
Di, 19.02. 19:00 1019 - 0,1
Di, 19.02. 13:00 1019 - 0,7
Di, 19.02. 7:00 1020 + 0,4
Di, 19.02. 1:00 1020 - 0,6
Mo, 18.02. 19:00 1021 - 0,5
Mo, 18.02. 13:00 1024 - 1,8
Ortszeit Luftdruck NN (hPa) Tendenz (hPa in 3 Std.)
Mi, 20.02. 12:00 1024 + 0,7
Mi, 20.02. 11:00 1025 + 1,4
Mi, 20.02. 10:00 1024 + 1,6
Mi, 20.02. 9:00 1024 + 1,5
Mi, 20.02. 8:00 1024 + 1,1
Mi, 20.02. 7:00 1023 + 0,8
Ortszeit Schneehöhe (cm)
Mi, 20.02. 7:00 -
Mi, 20.02. 1:00 -
Di, 19.02. 19:00 -
Di, 19.02. 13:00 -
Di, 19.02. 7:00 -
Di, 19.02. 1:00 -
Mo, 18.02. 19:00 -
Mo, 18.02. 13:00 -
Ortszeit Schneehöhe (cm)
Mi, 20.02. 12:00 -
Mi, 20.02. 11:00 -
Mi, 20.02. 10:00 -
Mi, 20.02. 9:00 -
Mi, 20.02. 8:00 -
Mi, 20.02. 7:00 -
Link zu dieser Seite / Seite empfehlen

Das Wetter in ...